Time;durP1;ratioP1;P1;durP2;ratioP2;P2;SDS_P1;SDS_P2;PMS_P1;PMS_P2;Temp;Humidity;BMP_temperature;BMP_pressure;BME280_temperature;BME280_humidity;BME280_pressure;Samples;Min_cycle;Max_cycle;Signal;HPM_P1;HPM_P2
2022/01/21 00:03:14;;;;;;;10.15;1.58;;;;;;;-147.53;100.00;57128.34;15271329;19;20058;-68
2022/01/21 00:08:16;;;;;;;4.60;1.02;;;;;;;-147.53;100.00;57128.34;15269550;19;20011;-68
2022/01/21 00:13:34;;;;;;;5.65;1.10;;;;;;;-147.53;100.00;57128.34;15262710;19;20545;-69
2022/01/21 00:18:37;;;;;;;3.97;1.25;;;;;;;-147.53;100.00;57128.34;15267591;19;20028;-68
2022/01/21 00:34:20;;;;;;;12.02;1.52;;;;;;;-147.53;100.00;57128.34;15261116;19;20039;-68
2022/01/21 00:39:25;;;;;;;6.85;1.02;;;;;;;-147.53;100.00;57128.34;15281434;19;20011;-68
2022/01/21 00:44:26;;;;;;;9.48;1.35;;;;;;;-147.53;100.00;57128.34;15278539;19;20115;-68
2022/01/21 00:49:28;;;;;;;4.50;1.00;;;;;;;-147.53;100.00;57128.34;15283573;19;20033;-68
2022/01/21 00:54:30;;;;;;;4.35;0.77;;;;;;;-147.53;100.00;57128.34;15274377;19;20018;-67
2022/01/21 00:59:32;;;;;;;9.93;1.42;;;;;;;-147.53;100.00;57128.34;15280436;19;20184;-68
2022/01/21 01:04:33;;;;;;;3.97;1.10;;;;;;;-147.53;100.00;57128.34;15278387;19;20018;-68
2022/01/21 01:09:36;;;;;;;7.63;0.98;;;;;;;-147.53;100.00;57128.34;15280196;19;20090;-68
2022/01/21 01:20:07;;;;;;;9.23;1.10;;;;;;;-147.53;100.00;57128.34;15281367;19;20351;-69
2022/01/21 01:30:32;;;;;;;10.73;1.50;;;;;;;-147.53;100.00;57128.34;15173892;19;2004402;-68
2022/01/21 01:35:35;;;;;;;8.20;1.33;;;;;;;-147.53;100.00;57128.34;15275518;19;20022;-68
2022/01/21 01:40:51;;;;;;;14.55;1.20;;;;;;;-147.53;100.00;57128.34;15281298;19;20030;-67
2022/01/21 01:51:17;;;;;;;6.55;0.93;;;;;;;-147.53;100.00;57128.34;15275169;19;20014;-67
2022/01/21 01:56:24;;;;;;;6.32;1.17;;;;;;;-147.53;100.00;57128.34;15273397;19;20035;-68
2022/01/21 02:01:26;;;;;;;11.63;1.50;;;;;;;-147.53;100.00;57128.34;15279147;19;20011;-67
2022/01/21 02:06:28;;;;;;;5.07;0.68;;;;;;;-147.53;100.00;57128.34;15283415;19;20018;-68
2022/01/21 02:11:30;;;;;;;10.70;1.77;;;;;;;-147.53;100.00;57128.34;15277674;19;20018;-68
2022/01/21 02:16:39;;;;;;;9.88;1.35;;;;;;;-147.53;100.00;57128.34;15274685;19;20011;-68
2022/01/21 02:21:45;;;;;;;14.00;1.20;;;;;;;-147.53;100.00;57128.34;15278215;19;20014;-68
2022/01/21 02:26:49;;;;;;;6.07;0.95;;;;;;;-147.53;100.00;57128.34;15271778;19;20701;-68
2022/01/21 02:31:51;;;;;;;6.57;0.80;;;;;;;-147.53;100.00;57128.34;15275088;19;20014;-67
2022/01/21 02:36:53;;;;;;;4.15;1.00;;;;;;;-147.53;100.00;57128.34;15268520;19;20078;-68
2022/01/21 02:41:55;;;;;;;5.90;1.02;;;;;;;-147.53;100.00;57128.34;15274194;19;20090;-69
2022/01/21 02:47:00;;;;;;;4.20;0.95;;;;;;;-147.53;100.00;57128.34;15269165;19;20022;-68
2022/01/21 02:52:07;;;;;;;11.30;1.35;;;;;;;-147.53;100.00;57128.34;15270851;19;20486;-68
2022/01/21 02:57:09;;;;;;;7.20;0.93;;;;;;;-147.53;100.00;57128.34;15268531;19;20014;-68
2022/01/21 03:02:13;;;;;;;11.95;1.30;;;;;;;-147.53;100.00;57128.34;15275050;19;20015;-68
2022/01/21 03:07:15;;;;;;;12.85;0.95;;;;;;;-147.53;100.00;57128.34;15267720;19;20085;-68
2022/01/21 03:12:17;;;;;;;5.90;0.95;;;;;;;-147.53;100.00;57128.34;15271191;19;20015;-67
2022/01/21 03:17:19;;;;;;;8.30;0.90;;;;;;;-147.53;100.00;57128.34;15271193;19;20054;-68
2022/01/21 03:22:20;;;;;;;4.32;1.05;;;;;;;-147.53;100.00;57128.34;15270563;19;20019;-68
2022/01/21 03:27:22;;;;;;;8.23;0.88;;;;;;;-147.53;100.00;57128.34;15268977;19;20014;-69
2022/01/21 03:32:25;;;;;;;6.28;0.60;;;;;;;-147.53;100.00;57128.34;15267476;19;20021;-68
2022/01/21 03:37:27;;;;;;;5.35;1.05;;;;;;;-147.53;100.00;57128.34;15268202;19;20015;-68
2022/01/21 03:42:29;;;;;;;6.60;0.68;;;;;;;-147.53;100.00;57128.34;15267230;19;20032;-67
2022/01/21 03:47:30;;;;;;;10.50;1.13;;;;;;;-147.53;100.00;57128.34;15269392;19;20014;-68
2022/01/21 03:52:32;;;;;;;3.10;0.52;;;;;;;-147.53;100.00;57128.34;15265421;19;20352;-68
2022/01/21 03:57:34;;;;;;;9.02;1.20;;;;;;;-147.53;100.00;57128.34;15266918;19;20019;-69
2022/01/21 04:02:36;;;;;;;7.40;1.55;;;;;;;-147.53;100.00;57128.34;15267740;19;20019;-68
2022/01/21 04:07:39;;;;;;;1.60;0.75;;;;;;;-147.53;100.00;57128.34;15266320;19;20477;-69
2022/01/21 04:12:41;;;;;;;8.23;0.80;;;;;;;-147.53;100.00;57128.34;15262751;19;20030;-68
2022/01/21 04:17:43;;;;;;;4.50;0.77;;;;;;;-147.53;100.00;57128.34;15267649;19;20422;-67
2022/01/21 04:22:46;;;;;;;4.68;1.00;;;;;;;-147.53;100.00;57128.34;15264252;19;20039;-68
2022/01/21 04:27:48;;;;;;;5.90;1.30;;;;;;;-147.53;100.00;57128.34;15265875;19;20007;-68
2022/01/21 04:32:50;;;;;;;7.03;1.40;;;;;;;-147.53;100.00;57128.34;15261659;19;20053;-68
2022/01/21 04:38:03;;;;;;;7.17;0.90;;;;;;;-147.53;100.00;57128.34;15264552;19;20086;-69
2022/01/21 04:48:29;;;;;;;12.65;1.73;;;;;;;-147.53;100.00;57128.34;15264925;19;20010;-68
2022/01/21 04:53:32;;;;;;;4.30;0.80;;;;;;;-147.53;100.00;57128.34;15260114;19;20037;-68
2022/01/21 04:59:02;;;;;;;7.72;1.15;;;;;;;-147.53;100.00;57128.34;15265139;19;20014;-68
2022/01/21 05:04:05;;;;;;;6.30;0.77;;;;;;;-147.53;100.00;57128.34;15264810;19;20089;-68
2022/01/21 05:09:07;;;;;;;5.00;1.10;;;;;;;-147.53;100.00;57128.34;15260191;19;20361;-68
2022/01/21 05:14:18;;;;;;;9.32;1.17;;;;;;;-147.53;100.00;57128.34;15258586;19;20349;-69
2022/01/21 05:19:28;;;;;;;3.42;0.75;;;;;;;-147.53;100.00;57128.34;15261471;19;20014;-68
2022/01/21 05:24:49;;;;;;;3.70;1.02;;;;;;;-147.53;100.00;57128.34;15269961;19;20015;-68
2022/01/21 05:29:51;;;;;;;2.50;0.70;;;;;;;-147.53;100.00;57128.34;15273509;19;20014;-68
2022/01/21 05:35:07;;;;;;;5.07;1.13;;;;;;;-147.53;100.00;57128.34;15269102;19;20491;-68
2022/01/21 05:40:22;;;;;;;9.93;0.80;;;;;;;-147.53;100.00;57128.34;15167345;19;2004307;-68
2022/01/21 05:51:17;;;;;;;5.75;0.93;;;;;;;-147.53;100.00;57128.34;15272686;19;20031;-68
2022/01/21 05:56:26;;;;;;;9.48;1.75;;;;;;;-147.53;100.00;57128.34;15267547;19;20022;-68
2022/01/21 06:01:37;;;;;;;7.25;1.20;;;;;;;-147.53;100.00;57128.34;15274895;19;20011;-68
2022/01/21 06:06:40;;;;;;;2.25;0.68;;;;;;;-147.53;100.00;57128.34;15267678;19;20374;-68
2022/01/21 06:11:41;;;;;;;11.43;1.30;;;;;;;-147.53;100.00;57128.34;15272116;19;20031;-67
2022/01/21 06:16:43;;;;;;;6.13;0.85;;;;;;;-147.53;100.00;57128.34;15274978;19;20423;-68
2022/01/21 06:21:45;;;;;;;8.48;0.93;;;;;;;-147.53;100.00;57128.34;15276039;19;20018;-67
2022/01/21 06:26:46;;;;;;;4.65;1.20;;;;;;;-147.53;100.00;57128.34;15268448;19;20122;-68
2022/01/21 06:31:48;;;;;;;2.50;0.70;;;;;;;-147.53;100.00;57128.34;15270610;19;20359;-68
2022/01/21 06:36:50;;;;;;;8.05;1.42;;;;;;;-147.53;100.00;57128.34;15265181;19;20014;-67
2022/01/21 06:41:51;;;;;;;6.05;1.10;;;;;;;-147.53;100.00;57128.34;15271075;19;20529;-67
2022/01/21 06:46:53;;;;;;;7.50;0.73;;;;;;;-147.53;100.00;57128.34;15266546;19;20515;-67
2022/01/21 06:51:55;;;;;;;0.98;0.38;;;;;;;-147.53;100.00;57128.34;15271318;19;20359;-68
2022/01/21 06:56:57;;;;;;;3.95;0.73;;;;;;;-147.53;100.00;57128.34;15265952;19;20019;-69
2022/01/21 07:01:58;;;;;;;8.63;0.95;;;;;;;-147.53;100.00;57128.34;15271023;19;20011;-69
2022/01/21 07:07:01;;;;;;;6.97;0.63;;;;;;;-147.53;100.00;57128.34;15266047;19;20482;-69
2022/01/21 07:12:03;;;;;;;3.85;1.20;;;;;;;-147.53;100.00;57128.34;15269865;19;20010;-68
2022/01/21 07:17:05;;;;;;;3.97;0.57;;;;;;;-147.53;100.00;57128.34;15268295;19;20018;-69
2022/01/21 07:22:06;;;;;;;2.63;0.73;;;;;;;-147.53;100.00;57128.34;15270109;19;20089;-70
2022/01/21 07:27:08;;;;;;;3.75;0.80;;;;;;;-147.53;100.00;57128.34;15265139;19;21066;-69
2022/01/21 07:32:10;;;;;;;6.57;1.48;;;;;;;-147.53;100.00;57128.34;15267928;19;20027;-69
2022/01/21 07:37:13;;;;;;;3.65;0.82;;;;;;;-147.53;100.00;57128.34;15264964;19;20532;-69
2022/01/21 07:42:15;;;;;;;4.05;1.50;;;;;;;-147.53;100.00;57128.34;15264629;19;20538;-69
2022/01/21 07:47:16;;;;;;;9.20;0.80;;;;;;;-147.53;100.00;57128.34;15264532;19;20035;-70
2022/01/21 07:52:18;;;;;;;7.13;1.02;;;;;;;-147.53;100.00;57128.34;15267244;19;20003;-70
2022/01/21 07:57:20;;;;;;;5.10;0.90;;;;;;;-147.53;100.00;57128.34;15262492;19;20601;-69
2022/01/21 08:02:24;;;;;;;10.45;1.20;;;;;;;-147.53;100.00;57128.34;15267887;19;20019;-70
2022/01/21 08:07:26;;;;;;;7.68;1.20;;;;;;;-147.53;100.00;57128.34;15266857;19;20086;-69
2022/01/21 08:12:27;;;;;;;8.43;1.27;;;;;;;-147.53;100.00;57128.34;15265781;19;20012;-71
2022/01/21 08:17:29;;;;;;;2.10;1.00;;;;;;;-147.53;100.00;57128.34;15268590;19;20536;-70
2022/01/21 08:22:31;;;;;;;7.80;1.38;;;;;;;-147.53;100.00;57128.34;15264680;19;20370;-70
2022/01/21 08:27:33;;;;;;;11.27;1.58;;;;;;;-147.53;100.00;57128.34;15267383;19;20031;-69
2022/01/21 08:32:36;;;;;;;4.88;1.25;;;;;;;-147.53;100.00;57128.34;15263587;19;20094;-69
2022/01/21 08:37:38;;;;;;;10.77;1.90;;;;;;;-147.53;100.00;57128.34;15266063;19;20039;-67
2022/01/21 08:42:39;;;;;;;11.23;1.83;;;;;;;-147.53;100.00;57128.34;15264294;19;20888;-70
2022/01/21 08:47:41;;;;;;;8.35;1.25;;;;;;;-147.53;100.00;57128.34;15264844;19;20015;-69
2022/01/21 08:52:44;;;;;;;10.10;1.35;;;;;;;-147.53;100.00;57128.34;15263060;19;20078;-69
2022/01/21 08:57:47;;;;;;;9.80;1.48;;;;;;;-147.53;100.00;57128.34;15271104;19;20019;-68
2022/01/21 09:02:51;;;;;;;7.75;1.90;;;;;;;-147.53;100.00;57128.34;15279491;19;20560;-68
2022/01/21 09:07:53;;;;;;;10.50;1.98;;;;;;;-147.53;100.00;57128.34;15278544;19;20021;-70
2022/01/21 09:12:54;;;;;;;10.45;1.60;;;;;;;-147.53;100.00;57128.34;15276393;19;20045;-70
2022/01/21 09:18:02;;;;;;;8.60;1.80;;;;;;;-147.53;100.00;57128.34;15279881;19;20082;-68
2022/01/21 09:23:05;;;;;;;7.65;1.20;;;;;;;-147.53;100.00;57128.34;15276477;19;20078;-68
2022/01/21 09:28:09;;;;;;;8.98;1.70;;;;;;;-147.53;100.00;57128.34;15281419;19;20014;-67
2022/01/21 09:33:10;;;;;;;9.02;1.30;;;;;;;-147.53;100.00;57128.34;15276560;19;20007;-66
2022/01/21 09:38:12;;;;;;;9.00;1.20;;;;;;;-147.53;100.00;57128.34;15276958;19;20006;-68
2022/01/21 09:43:18;;;;;;;8.52;1.30;;;;;;;-147.53;100.00;57128.34;15275661;19;20018;-68
2022/01/21 09:48:23;;;;;;;7.85;2.35;;;;;;;-147.53;100.00;57128.34;15275788;19;20070;-69
2022/01/21 09:53:27;;;;;;;6.90;1.50;;;;;;;-147.53;100.00;57128.34;15273374;19;20054;-68
2022/01/21 09:58:30;;;;;;;5.63;1.33;;;;;;;-147.53;100.00;57128.34;15277638;19;20036;-69
2022/01/21 10:03:33;;;;;;;10.75;1.52;;;;;;;-147.53;100.00;57128.34;15276469;19;20016;-70
2022/01/21 10:08:38;;;;;;;11.38;1.55;;;;;;;-147.53;100.00;57128.34;15272199;19;20019;-70
2022/01/21 10:13:42;;;;;;;13.82;1.90;;;;;;;-147.53;100.00;57128.34;15271303;19;20019;-69
2022/01/21 10:19:05;;;;;;;8.57;1.65;;;;;;;-147.53;100.00;57128.34;15275579;19;20479;-69
2022/01/21 10:24:10;;;;;;;10.65;1.88;;;;;;;-147.53;100.00;57128.34;15269962;19;20043;-70
2022/01/21 10:29:11;;;;;;;10.38;1.42;;;;;;;-147.53;100.00;57128.34;15273223;19;20018;-69
2022/01/21 10:34:13;;;;;;;11.20;1.65;;;;;;;-147.53;100.00;57128.34;15269874;19;20118;-69
2022/01/21 10:39:27;;;;;;;12.40;1.98;;;;;;;-147.53;100.00;57128.34;15273263;19;20078;-69
2022/01/21 10:44:30;;;;;;;12.75;1.67;;;;;;;-147.53;100.00;57128.34;15269437;19;20073;-69
2022/01/21 10:49:32;;;;;;;6.03;1.17;;;;;;;-147.53;100.00;57128.34;15272565;19;20018;-69
2022/01/21 10:54:41;;;;;;;9.45;1.50;;;;;;;-147.53;100.00;57128.34;15272562;19;20073;-69
2022/01/21 10:59:49;;;;;;;9.93;1.48;;;;;;;-147.53;100.00;57128.34;15276597;19;20029;-71
2022/01/21 11:04:52;;;;;;;16.38;2.03;;;;;;;-147.53;100.00;57128.34;15273602;19;20432;-69
2022/01/21 11:09:53;;;;;;;9.93;1.48;;;;;;;-147.53;100.00;57128.34;15272094;19;20112;-69
2022/01/21 11:15:04;;;;;;;9.75;1.77;;;;;;;-147.53;100.00;57128.34;15267554;19;20087;-70
2022/01/21 11:20:16;;;;;;;10.75;1.38;;;;;;;-147.53;100.00;57128.34;15273568;19;20354;-69
2022/01/21 11:25:38;;;;;;;6.90;1.30;;;;;;;-147.53;100.00;57128.34;15164370;19;2004178;-69
2022/01/21 11:30:41;;;;;;;5.43;0.82;;;;;;;-147.53;100.00;57128.34;15269534;19;20010;-70
2022/01/21 11:35:42;;;;;;;12.75;2.15;;;;;;;-147.53;100.00;57128.34;15269906;19;20046;-70
2022/01/21 11:40:47;;;;;;;7.78;1.77;;;;;;;-147.53;100.00;57128.34;15266023;19;20031;-69
2022/01/21 11:50:55;;;;;;;11.15;2.13;;;;;;;-147.53;100.00;57128.34;15273673;19;20030;-69
2022/01/21 11:55:57;;;;;;;13.95;1.35;;;;;;;-147.53;100.00;57128.34;15264634;19;20894;-68
2022/01/21 12:01:05;;;;;;;14.75;2.58;;;;;;;-147.53;100.00;57128.34;15265531;19;20086;-67
2022/01/21 12:06:31;;;;;;;15.30;2.10;;;;;;;-147.53;100.00;57128.34;15267182;19;20018;-69
2022/01/21 12:11:37;;;;;;;5.72;1.42;;;;;;;-147.53;100.00;57128.34;15265138;19;20384;-69
2022/01/21 12:16:58;;;;;;;16.15;1.98;;;;;;;-147.53;100.00;57128.34;15272089;19;20030;-67
2022/01/21 12:22:14;;;;;;;10.93;2.20;;;;;;;-147.53;100.00;57128.34;15269238;19;20514;-67
2022/01/21 12:27:16;;;;;;;20.95;2.28;;;;;;;-147.53;100.00;57128.34;15267027;19;20075;-67
2022/01/21 12:32:29;;;;;;;14.18;2.33;;;;;;;-147.53;100.00;57128.34;15270003;19;20031;-67
2022/01/21 12:39:05;;;;;;;11.73;1.73;;;;;;;-147.53;100.00;57128.34;15281271;19;20014;-68
2022/01/21 12:43:49;;;;;;;9.20;1.90;;;;;;;-147.53;100.00;57128.34;15282935;19;20812;-68
2022/01/21 12:48:52;;;;;;;10.05;1.83;;;;;;;-147.53;100.00;57128.34;15287168;19;20477;-64
2022/01/21 13:00:08;;;;;;;10.65;1.40;;;;;;;-147.53;100.00;57128.34;15288317;19;20018;-65
2022/01/21 13:05:13;;;;;;;11.65;2.08;;;;;;;-147.53;100.00;57128.34;15287764;19;20589;-69
2022/01/21 13:10:25;;;;;;;13.15;2.28;;;;;;;-147.53;100.00;57128.34;15280539;19;20014;-67
2022/01/21 13:15:43;;;;;;;13.45;2.25;;;;;;;-147.53;100.00;57128.34;15271016;19;20021;-68
2022/01/21 13:20:48;;;;;;;11.15;2.13;;;;;;;-147.53;100.00;57128.34;15278906;19;20484;-69
2022/01/21 13:25:49;;;;;;;7.05;1.45;;;;;;;-147.53;100.00;57128.34;15274678;19;20514;-69
2022/01/21 13:30:51;;;;;;;9.73;1.10;;;;;;;-147.53;100.00;57128.34;15278762;19;20088;-68
2022/01/21 13:35:53;;;;;;;4.30;1.10;;;;;;;-147.53;100.00;57128.34;15272515;19;20031;-68
2022/01/21 13:40:57;;;;;;;9.25;1.05;;;;;;;-147.53;100.00;57128.34;15277869;19;20103;-69
2022/01/21 13:46:02;;;;;;;6.47;1.20;;;;;;;-147.53;100.00;57128.34;15273338;19;20438;-68
2022/01/21 13:51:07;;;;;;;5.63;1.25;;;;;;;-147.53;100.00;57128.34;15276860;19;20002;-68
2022/01/21 13:56:11;;;;;;;6.40;1.13;;;;;;;-147.53;100.00;57128.34;15271399;19;20593;-68
2022/01/21 14:01:14;;;;;;;3.72;0.85;;;;;;;-147.53;100.00;57128.34;15276254;19;20018;-67
2022/01/21 14:06:22;;;;;;;9.40;1.42;;;;;;;-147.53;100.00;57128.34;15270637;19;20035;-68
2022/01/21 14:11:41;;;;;;;5.38;1.23;;;;;;;-147.53;100.00;57128.34;15277683;19;20365;-69
2022/01/21 14:16:46;;;;;;;8.77;1.75;;;;;;;-147.53;100.00;57128.34;15270131;19;20029;-68
2022/01/21 14:21:50;;;;;;;5.97;1.63;;;;;;;-147.53;100.00;57128.34;15281122;19;20565;-69
2022/01/21 14:26:57;;;;;;;5.85;1.65;;;;;;;-147.53;100.00;57128.34;15277395;19;20128;-67
2022/01/21 14:32:13;;;;;;;26.73;11.00;;;;;;;-147.53;100.00;57128.34;15281848;19;20564;-68
2022/01/21 14:37:17;;;;;;;21.40;9.68;;;;;;;-147.53;100.00;57128.34;15278089;19;20482;-69
2022/01/21 14:42:25;;;;;;;33.05;14.95;;;;;;;-147.53;100.00;57128.34;15279313;19;20094;-69
2022/01/21 14:47:31;;;;;;;15.45;3.05;;;;;;;-147.53;100.00;57128.34;15275006;19;20078;-68
2022/01/21 14:52:45;;;;;;;13.70;3.00;;;;;;;-147.53;100.00;57128.34;15277228;19;20038;-69
2022/01/21 14:57:54;;;;;;;5.93;1.83;;;;;;;-147.53;100.00;57128.34;15277823;19;20086;-69
2022/01/21 15:03:17;;;;;;;10.52;1.70;;;;;;;-147.53;100.00;57128.34;15277473;19;20070;-69
2022/01/21 15:09:01;;;;;;;9.00;1.95;;;;;;;-147.53;100.00;57128.34;15279392;19;20007;-69
2022/01/21 15:14:33;;;;;;;18.02;4.22;;;;;;;-147.53;100.00;57128.34;15274873;19;20015;-70
2022/01/21 15:19:43;;;;;;;14.82;2.55;;;;;;;-147.53;100.00;57128.34;15258209;19;20872;-70
2022/01/21 15:24:49;;;;;;;;;;;;;;;-147.53;100.00;57128.34;15275287;19;20010;-70
2022/01/21 15:29:53;;;;;;;21.05;6.35;;;;;;;-147.53;100.00;57128.34;15278313;19;20379;-70
2022/01/21 15:34:55;;;;;;;12.65;2.72;;;;;;;-147.53;100.00;57128.34;15270164;19;20020;-69
2022/01/21 15:39:57;;;;;;;17.58;6.30;;;;;;;-147.53;100.00;57128.34;15276741;19;20015;-69
2022/01/21 15:44:59;;;;;;;21.27;6.47;;;;;;;-147.53;100.00;57128.34;15260618;19;20014;-70
2022/01/21 15:50:02;;;;;;;18.15;6.57;;;;;;;-147.53;100.00;57128.34;15269594;19;20028;-70
2022/01/21 15:55:06;;;;;;;35.75;12.65;;;;;;;-147.53;100.00;57128.34;15272515;19;20023;-69
2022/01/21 16:00:11;;;;;;;14.38;4.68;;;;;;;-147.53;100.00;57128.34;15274090;19;20090;-68
2022/01/21 16:05:16;;;;;;;33.92;11.70;;;;;;;-147.53;100.00;57128.34;15159633;19;2004456;-70
2022/01/21 16:10:20;;;;;;;7.15;3.22;;;;;;;-147.53;100.00;57128.34;15272475;19;20451;-70
2022/01/21 16:15:37;;;;;;;6.97;2.80;;;;;;;-147.53;100.00;57128.34;15272169;19;20011;-70
2022/01/21 16:20:44;;;;;;;8.35;2.65;;;;;;;-147.53;100.00;57128.34;15276076;19;20355;-69
2022/01/21 16:25:47;;;;;;;5.13;2.20;;;;;;;-147.53;100.00;57128.34;15267759;19;20010;-69
2022/01/21 16:30:54;;;;;;;6.55;2.75;;;;;;;-147.53;100.00;57128.34;15264516;19;20041;-69
2022/01/21 16:36:01;;;;;;;11.05;3.83;;;;;;;-147.53;100.00;57128.34;15270543;19;20021;-70
2022/01/21 16:41:05;;;;;;;9.80;1.90;;;;;;;-147.53;100.00;57128.34;15274467;19;20011;-70
2022/01/21 16:46:08;;;;;;;3.45;1.83;;;;;;;-147.53;100.00;57128.34;15271533;19;20611;-70
2022/01/21 16:51:10;;;;;;;3.33;1.48;;;;;;;-147.53;100.00;57128.34;15273969;19;20014;-69
2022/01/21 16:56:11;;;;;;;6.68;2.13;;;;;;;-147.53;100.00;57128.34;15262997;19;20428;-69
2022/01/21 17:01:14;;;;;;;4.25;1.73;;;;;;;-147.53;100.00;57128.34;15267183;19;20011;-68
2022/01/21 17:06:20;;;;;;;8.45;2.28;;;;;;;-147.53;100.00;57128.34;15264470;19;20510;-69
2022/01/21 17:11:24;;;;;;;6.07;2.40;;;;;;;-147.53;100.00;57128.34;15273506;19;20570;-69
2022/01/21 17:16:26;;;;;;;4.70;1.77;;;;;;;-147.53;100.00;57128.34;15268660;19;20019;-70
2022/01/21 17:21:31;;;;;;;6.68;2.13;;;;;;;-147.53;100.00;57128.34;15285830;19;20018;-69
2022/01/21 17:26:42;;;;;;;7.53;2.00;;;;;;;-147.53;100.00;57128.34;15282291;19;20015;-70
2022/01/21 17:31:46;;;;;;;6.00;2.45;;;;;;;-147.53;100.00;57128.34;15285347;19;20019;-71
2022/01/21 17:36:48;;;;;;;6.72;3.25;;;;;;;-147.53;100.00;57128.34;15279362;19;20013;-71
2022/01/21 17:41:49;;;;;;;11.65;4.38;;;;;;;-147.53;100.00;57128.34;15284275;19;20006;-71
2022/01/21 17:46:53;;;;;;;9.13;2.50;;;;;;;-147.53;100.00;57128.34;15279031;19;20018;-71
2022/01/21 17:51:55;;;;;;;4.78;2.20;;;;;;;-147.53;100.00;57128.34;15283622;19;20014;-70
2022/01/21 17:56:57;;;;;;;6.80;2.22;;;;;;;-147.53;100.00;57128.34;15279563;19;20132;-71
2022/01/21 18:01:59;;;;;;;8.80;2.28;;;;;;;-147.53;100.00;57128.34;15284585;19;20014;-71
2022/01/21 18:07:01;;;;;;;5.18;1.77;;;;;;;-147.53;100.00;57128.34;15277163;19;20085;-71
2022/01/21 18:12:04;;;;;;;9.55;2.22;;;;;;;-147.53;100.00;57128.34;15282354;19;20006;-71
2022/01/21 18:17:06;;;;;;;6.88;1.98;;;;;;;-147.53;100.00;57128.34;15279151;19;20124;-71
2022/01/21 18:22:09;;;;;;;8.30;1.80;;;;;;;-147.53;100.00;57128.34;15282137;19;20007;-71
2022/01/21 18:27:11;;;;;;;6.65;1.88;;;;;;;-147.53;100.00;57128.34;15278930;19;20500;-70
2022/01/21 18:32:13;;;;;;;7.07;2.00;;;;;;;-147.53;100.00;57128.34;15278765;19;20752;-70
2022/01/21 18:37:16;;;;;;;4.60;1.55;;;;;;;-147.53;100.00;57128.34;15277267;19;20378;-69
2022/01/21 18:42:22;;;;;;;4.63;1.42;;;;;;;-147.53;100.00;57128.34;15278225;19;20501;-68
2022/01/21 18:47:28;;;;;;;4.63;1.73;;;;;;;-147.53;100.00;57128.34;15277889;19;20133;-69
2022/01/21 18:52:29;;;;;;;7.93;1.50;;;;;;;-147.53;100.00;57128.34;15268173;19;20413;-70
2022/01/21 18:57:31;;;;;;;5.97;1.90;;;;;;;-147.53;100.00;57128.34;15263183;19;20097;-70
2022/01/21 19:02:36;;;;;;;7.13;2.05;;;;;;;-147.53;100.00;57128.34;15266661;19;20496;-70
2022/01/21 19:07:39;;;;;;;7.78;1.42;;;;;;;-147.53;100.00;57128.34;15278440;19;20013;-69
2022/01/21 19:12:42;;;;;;;4.18;1.02;;;;;;;-147.53;100.00;57128.34;15279002;19;20515;-71
2022/01/21 19:17:47;;;;;;;6.13;1.25;;;;;;;-147.53;100.00;57128.34;15277491;19;20420;-70
2022/01/21 19:22:52;;;;;;;4.45;1.20;;;;;;;-147.53;100.00;57128.34;15277324;19;20033;-69
2022/01/21 19:27:54;;;;;;;4.88;2.00;;;;;;;-147.53;100.00;57128.34;15278391;19;20086;-70
2022/01/21 19:32:55;;;;;;;7.07;1.63;;;;;;;-147.53;100.00;57128.34;15276238;19;20086;-69
2022/01/21 19:37:59;;;;;;;7.75;2.25;;;;;;;-147.53;100.00;57128.34;15277114;19;20021;-70
2022/01/21 19:43:07;;;;;;;4.60;1.60;;;;;;;-147.53;100.00;57128.34;15275443;19;20919;-69
2022/01/21 19:48:12;;;;;;;5.88;1.73;;;;;;;-147.53;100.00;57128.34;15277651;19;20010;-69
2022/01/21 19:53:14;;;;;;;6.65;2.00;;;;;;;-147.53;100.00;57128.34;15275693;19;20057;-69
2022/01/21 19:58:20;;;;;;;5.78;1.80;;;;;;;-147.53;100.00;57128.34;15277215;19;20699;-69
2022/01/21 20:08:52;;;;;;;11.82;3.55;;;;;;;-147.53;100.00;57128.34;15277659;19;20010;-69
2022/01/21 20:19:04;;;;;;;13.98;4.25;;;;;;;-147.53;100.00;57128.34;15274940;19;20070;-69
2022/01/21 20:24:08;;;;;;;14.98;2.58;;;;;;;-147.53;100.00;57128.34;15272657;19;20784;-70
2022/01/21 20:29:11;;;;;;;8.48;2.55;;;;;;;-147.53;100.00;57128.34;15272878;19;20014;-69
2022/01/21 20:34:19;;;;;;;6.30;2.17;;;;;;;-147.53;100.00;57128.34;15272302;19;20015;-69
2022/01/21 20:39:51;;;;;;;8.35;2.72;;;;;;;-147.53;100.00;57128.34;15274056;19;20032;-69
2022/01/21 20:44:53;;;;;;;4.82;1.73;;;;;;;-147.53;100.00;57128.34;15271956;19;20457;-70
2022/01/21 20:49:55;;;;;;;4.38;1.30;;;;;;;-147.53;100.00;57128.34;15274777;19;20086;-69
2022/01/21 20:54:59;;;;;;;4.10;1.40;;;;;;;-147.53;100.00;57128.34;15281209;19;20027;-70
2022/01/21 21:00:06;;;;;;;6.28;1.30;;;;;;;-147.53;100.00;57128.34;15289859;19;20082;-70
2022/01/21 21:05:08;;;;;;;3.63;1.80;;;;;;;-147.53;100.00;57128.34;15285769;19;20024;-69
2022/01/21 21:10:19;;;;;;;6.43;1.75;;;;;;;-147.53;100.00;57128.34;15289647;19;20074;-69
2022/01/21 21:15:24;;;;;;;2.63;1.40;;;;;;;-147.53;100.00;57128.34;15283966;19;20495;-70
2022/01/21 21:26:36;;;;;;;8.95;1.48;;;;;;;-147.53;100.00;57128.34;15282567;19;20018;-70
2022/01/21 22:25:23;;;;;;;5.28;1.15;;;;;;;-147.53;100.00;57128.34;15280904;19;20014;-70
2022/01/21 22:51:22;;;;;;;4.32;1.10;;;;;;;-147.53;100.00;57128.34;15283162;19;20787;-69
2022/01/21 23:01:45;;;;;;;3.67;1.20;;;;;;;-147.53;100.00;57128.34;15284889;19;20018;-70
2022/01/21 23:06:50;;;;;;;4.80;1.30;;;;;;;-147.53;100.00;57128.34;15276922;19;20019;-70
2022/01/21 23:11:53;;;;;;;4.95;1.23;;;;;;;-147.53;100.00;57128.34;15279583;19;20018;-71
2022/01/21 23:16:55;;;;;;;3.65;1.13;;;;;;;-147.53;100.00;57128.34;15273720;19;20006;-70
2022/01/21 23:21:59;;;;;;;3.75;1.50;;;;;;;-147.53;100.00;57128.34;15275511;19;20049;-70
2022/01/21 23:27:01;;;;;;;2.90;1.20;;;;;;;-147.53;100.00;57128.34;15273119;19;20073;-70
2022/01/21 23:32:03;;;;;;;3.10;1.00;;;;;;;-147.53;100.00;57128.34;15277862;19;20010;-70
2022/01/21 23:37:09;;;;;;;2.28;0.88;;;;;;;-147.53;100.00;57128.34;15274086;19;20412;-70
2022/01/21 23:42:12;;;;;;;1.50;0.95;;;;;;;-147.53;100.00;57128.34;15276244;19;20090;-70
2022/01/21 23:47:17;;;;;;;3.92;1.08;;;;;;;-147.53;100.00;57128.34;15271721;19;20026;-70
2022/01/21 23:52:19;;;;;;;2.05;1.08;;;;;;;-147.53;100.00;57128.34;15275282;19;20014;-70
2022/01/21 23:57:21;;;;;;;2.50;0.82;;;;;;;-147.53;100.00;57128.34;15272744;19;20010;-70
